WetterOnline ( https://www.wetteronline.ch )

Wetter aktuell Ludwigsburg

Aktuelles Wetter: Schnarrenberg/Stuttgart (315m)

6-stündlich | Neueste Meldungen
Ortszeit Temperatur Wetter
Mo, 16.12. 7:00 8.2° C wolkig
Mo, 16.12. 1:00 7.9° C bedeckt
So, 15.12. 19:00 7.7° C leichter Regen
So, 15.12. 13:00 13.7° C leichter Regen
So, 15.12. 7:00 12.4° C bedeckt
So, 15.12. 1:00 7.2° C bedeckt
Sa, 14.12. 19:00 8.0° C bewölkt
Sa, 14.12. 13:00 7.2° C leichter Regen
Ortszeit Temperatur Wetter
Mo, 16.12. 9:30 7.8° C bedeckt
Mo, 16.12. 9:20 7.8° C bedeckt
Mo, 16.12. 9:10 7.6° C bedeckt
Mo, 16.12. 9:00 7.5° C bedeckt
Mo, 16.12. 8:50 7.5° C bedeckt
Mo, 16.12. 8:40 7.5° C bedeckt
Mo, 16.12. 8:30 7.7° C bedeckt
Mo, 16.12. 8:00 10.0° C bedeckt
Ortszeit Relative Feuchte Sichtweite
Mo, 16.12. 7:00 83% >70 km
Mo, 16.12. 1:00 94% 45 km
So, 15.12. 19:00 95% 35 km
So, 15.12. 13:00 63% >70 km
So, 15.12. 7:00 71% >70 km
So, 15.12. 1:00 81% 65 km
Sa, 14.12. 19:00 54% 65 km
Sa, 14.12. 13:00 78% 13 km
Ortszeit Relative Feuchte Sichtweite
Mo, 16.12. 9:30 88% 65 km
Mo, 16.12. 9:20 88% -
Mo, 16.12. 9:10 88% -
Mo, 16.12. 9:00 89% 50 km
Mo, 16.12. 8:50 89% -
Mo, 16.12. 8:40 89% -
Mo, 16.12. 8:30 87% 45 km
Mo, 16.12. 8:00 75% >70 km
Ortszeit Niederschlagsmenge Niederschlagsart
Mo, 16.12. 7:00 0.1 l/m2 in 12 Std. -
Mo, 16.12. 1:00 0.1 l/m2 in 6 Std. Regen
So, 15.12. 19:00 1 l/m2 in 12 Std. Regen
So, 15.12. 13:00 0.1 l/m2 in 6 Std. Regen
So, 15.12. 7:00 1 l/m2 in 12 Std. Regen
So, 15.12. 1:00 0.3 l/m2 in 6 Std. Regen
Sa, 14.12. 19:00 0.8 l/m2 in 12 Std. Regen
Sa, 14.12. 13:00 0.7 l/m2 in 6 Std. Regen
Ortszeit Niederschlagsmenge Niederschlagsart
Mo, 16.12. 9:30 0.0 l/m2 in 1 Std. -
Mo, 16.12. 9:20 keine Meldung -
Mo, 16.12. 9:10 keine Meldung -
Mo, 16.12. 9:00 0.0 l/m2 in 1 Std. -
Mo, 16.12. 8:50 keine Meldung -
Mo, 16.12. 8:40 keine Meldung -
Mo, 16.12. 8:30 0.0 l/m2 in 1 Std. -
Mo, 16.12. 8:00 0.0 l/m2 in 1 Std. -
Ortszeit Stärke Spitze Richtung
km/h Bft. km/h Grad Sektor
Mo, 16.12. 7:00 13 3 20 160° S
Mo, 16.12. 1:00 6 1 19 120° SO
So, 15.12. 19:00 6 1 63 160° S
So, 15.12. 13:00 22 4 65 250° W
So, 15.12. 7:00 22 4 47 210° SW
So, 15.12. 1:00 11 2 39 170° S
Sa, 14.12. 19:00 17 3 70 200° S
Sa, 14.12. 13:00 32 5 65 270° W
Ortszeit Stärke Spitze Richtung
km/h Bft. km/h Grad Sektor
Mo, 16.12. 9:30 13 3 19 160° S
Mo, 16.12. 9:20 13 3 - 160° S
Mo, 16.12. 9:10 14 3 - 170° S
Mo, 16.12. 9:00 13 3 19 160° S
Mo, 16.12. 8:50 13 3 - 160° S
Mo, 16.12. 8:40 14 3 - 160° S
Mo, 16.12. 8:30 7 2 11 160° S
Mo, 16.12. 8:00 7 2 14 230° SW
Ortszeit Untergrenze Bedeckung Gattung
total tief tief mittel hoch
Mo, 16.12. 7:00 3900 m 5/8 5/8 - - -
Mo, 16.12. 1:00 1500 m 8/8 8/8 - - -
So, 15.12. 19:00 1500 m 7/8 7/8 - - -
So, 15.12. 13:00 1800 m 3/8 3/8 - - -
So, 15.12. 7:00 3600 m 8/8 8/8 - - -
So, 15.12. 1:00 780 m 8/8 8/8 - - -
Sa, 14.12. 19:00 1500 m 7/8 6/8 - - -
Sa, 14.12. 13:00 690 m 8/8 8/8 - - -
Ortszeit Bedeckungsgrad in Achtel und Wolkenuntergrenze
Mo, 16.12. 9:30 7(3600m) 8(4500m) 8(5100m)
Mo, 16.12. 9:20 7(3600m) 8(4500m) 8(5100m)
Mo, 16.12. 9:10 8(3600m) 8(5100m) 8(6300m)
Mo, 16.12. 9:00 8(3600m) 8(5100m) 8(6300m)
Mo, 16.12. 8:50 8(3600m) 8(5100m) 8(6300m)
Mo, 16.12. 8:40 8(3600m) 8(4800m) 8(5400m)
Mo, 16.12. 8:30 8(3600m) 8(5700m) 8(6000m)
Mo, 16.12. 8:00 8(3600m) 8(4800m) 8(6000m)
Ortszeit Luftdruck NN (hPa) Tendenz (hPa in 3 Std.)
Mo, 16.12. 7:00 1010 - 0,7
Mo, 16.12. 1:00 1011 - 0,6
So, 15.12. 19:00 1011 + 1,8
So, 15.12. 13:00 1005 + 1,6
So, 15.12. 7:00 1001 - 1,1
So, 15.12. 1:00 1006 - 0,8
Sa, 14.12. 19:00 1004 + 1,1
Sa, 14.12. 13:00 1000 + 4,6
Ortszeit Luftdruck NN (hPa) Tendenz (hPa in 3 Std.)
Mo, 16.12. 9:30 1011 + 0,5
Mo, 16.12. 9:20 1011 keine Meldung
Mo, 16.12. 9:10 1011 keine Meldung
Mo, 16.12. 9:00 1011 + 0,2
Mo, 16.12. 8:50 1011 keine Meldung
Mo, 16.12. 8:40 1011 keine Meldung
Mo, 16.12. 8:30 1011 0,0
Mo, 16.12. 8:00 1010 - 0,1
Ortszeit Schneehöhe (cm)
Mo, 16.12. 7:00 0
Mo, 16.12. 1:00 0
So, 15.12. 19:00 0
So, 15.12. 13:00 0
So, 15.12. 7:00 0
So, 15.12. 1:00 0
Sa, 14.12. 19:00 0
Sa, 14.12. 13:00 0
Ortszeit Schneehöhe (cm)
Mo, 16.12. 9:30 0
Mo, 16.12. 9:20 0
Mo, 16.12. 9:10 0
Mo, 16.12. 9:00 0
Mo, 16.12. 8:50 0
Mo, 16.12. 8:40 0
Mo, 16.12. 8:30 0
Mo, 16.12. 8:00 0
Link zu dieser Seite / Seite empfehlen

Das Wetter in ...